sensor_id;sensor_type;location;lat;lon;timestamp;temperature;humidity
18191;DHT22;47004;51.366;12.348;2022-10-31T00:01:56;13.90;99.90
18191;DHT22;47004;51.366;12.348;2022-10-31T00:03:58;13.90;99.90
18191;DHT22;47004;51.366;12.348;2022-10-31T00:06:00;13.90;99.90
18191;DHT22;47004;51.366;12.348;2022-10-31T00:08:04;14.00;99.90
18191;DHT22;47004;51.366;12.348;2022-10-31T00:10:07;13.90;99.90
18191;DHT22;47004;51.366;12.348;2022-10-31T00:12:10;13.90;99.90
18191;DHT22;47004;51.366;12.348;2022-10-31T00:14:12;13.90;99.90
18191;DHT22;47004;51.366;12.348;2022-10-31T00:16:14;13.90;99.90
18191;DHT22;47004;51.366;12.348;2022-10-31T00:18:17;13.90;99.90
18191;DHT22;47004;51.366;12.348;2022-10-31T00:20:21;13.80;99.90
18191;DHT22;47004;51.366;12.348;2022-10-31T00:22:23;13.80;99.90
18191;DHT22;47004;51.366;12.348;2022-10-31T00:24:27;13.80;99.90
18191;DHT22;47004;51.366;12.348;2022-10-31T00:26:30;13.80;99.90
18191;DHT22;47004;51.366;12.348;2022-10-31T00:28:33;13.80;99.90
18191;DHT22;47004;51.366;12.348;2022-10-31T00:30:35;13.80;99.90
18191;DHT22;47004;51.366;12.348;2022-10-31T00:32:37;13.80;99.90
18191;DHT22;47004;51.366;12.348;2022-10-31T00:34:39;13.80;99.90
18191;DHT22;47004;51.366;12.348;2022-10-31T00:36:41;13.80;99.90
18191;DHT22;47004;51.366;12.348;2022-10-31T00:38:43;13.80;99.90
18191;DHT22;47004;51.366;12.348;2022-10-31T00:40:47;13.80;99.90
18191;DHT22;47004;51.366;12.348;2022-10-31T00:42:49;13.80;99.90
18191;DHT22;47004;51.366;12.348;2022-10-31T00:44:51;13.80;99.90
18191;DHT22;47004;51.366;12.348;2022-10-31T00:46:59;13.80;99.90
18191;DHT22;47004;51.366;12.348;2022-10-31T00:49:01;13.80;99.90
18191;DHT22;47004;51.366;12.348;2022-10-31T00:51:04;13.80;99.90
18191;DHT22;47004;51.366;12.348;2022-10-31T00:53:06;13.70;99.90
18191;DHT22;47004;51.366;12.348;2022-10-31T00:55:08;13.80;99.90
18191;DHT22;47004;51.366;12.348;2022-10-31T00:57:11;13.80;99.90
18191;DHT22;47004;51.366;12.348;2022-10-31T00:59:13;13.70;99.90
18191;DHT22;47004;51.366;12.348;2022-10-31T01:01:15;13.70;99.90
18191;DHT22;47004;51.366;12.348;2022-10-31T01:03:17;13.70;99.90
18191;DHT22;47004;51.366;12.348;2022-10-31T01:05:19;13.70;99.90
18191;DHT22;47004;51.366;12.348;2022-10-31T01:07:21;13.70;99.90
18191;DHT22;47004;51.366;12.348;2022-10-31T01:09:23;13.70;99.90
18191;DHT22;47004;51.366;12.348;2022-10-31T01:11:25;13.70;99.90
18191;DHT22;47004;51.366;12.348;2022-10-31T01:13:28;13.60;99.90
18191;DHT22;47004;51.366;12.348;2022-10-31T01:15:30;13.60;99.90
18191;DHT22;47004;51.366;12.348;2022-10-31T01:17:32;13.60;99.90
18191;DHT22;47004;51.366;12.348;2022-10-31T01:19:34;13.60;99.90
18191;DHT22;47004;51.366;12.348;2022-10-31T01:21:36;13.60;99.90
18191;DHT22;47004;51.366;12.348;2022-10-31T01:23:38;13.60;99.90
18191;DHT22;47004;51.366;12.348;2022-10-31T01:25:40;13.60;99.90
18191;DHT22;47004;51.366;12.348;2022-10-31T01:27:43;13.60;99.90
18191;DHT22;47004;51.366;12.348;2022-10-31T01:29:46;13.50;99.90
18191;DHT22;47004;51.366;12.348;2022-10-31T01:31:48;13.50;99.90
18191;DHT22;47004;51.366;12.348;2022-10-31T01:33:50;13.50;99.90
18191;DHT22;47004;51.366;12.348;2022-10-31T01:35:52;13.50;99.90
18191;DHT22;47004;51.366;12.348;2022-10-31T01:37:54;13.50;99.90
18191;DHT22;47004;51.366;12.348;2022-10-31T01:39:56;13.50;99.90
18191;DHT22;47004;51.366;12.348;2022-10-31T01:41:58;13.40;99.90
18191;DHT22;47004;51.366;12.348;2022-10-31T01:44:02;13.40;99.90
18191;DHT22;47004;51.366;12.348;2022-10-31T01:46:05;13.40;99.90
18191;DHT22;47004;51.366;12.348;2022-10-31T01:48:11;13.40;99.90
18191;DHT22;47004;51.366;12.348;2022-10-31T01:50:26;13.40;99.90
18191;DHT22;47004;51.366;12.348;2022-10-31T01:52:32;13.40;99.90
18191;DHT22;47004;51.366;12.348;2022-10-31T01:54:37;13.30;99.90
18191;DHT22;47004;51.366;12.348;2022-10-31T01:56:46;13.30;99.90
18191;DHT22;47004;51.366;12.348;2022-10-31T01:58:49;13.30;99.90
18191;DHT22;47004;51.366;12.348;2022-10-31T02:00:54;13.30;99.90
18191;DHT22;47004;51.366;12.348;2022-10-31T02:02:58;13.30;99.90
18191;DHT22;47004;51.366;12.348;2022-10-31T02:05:07;13.30;99.90
18191;DHT22;47004;51.366;12.348;2022-10-31T02:07:13;13.20;99.90
18191;DHT22;47004;51.366;12.348;2022-10-31T02:09:16;13.20;99.90
18191;DHT22;47004;51.366;12.348;2022-10-31T02:11:18;13.10;99.90
18191;DHT22;47004;51.366;12.348;2022-10-31T02:13:21;13.20;99.90
18191;DHT22;47004;51.366;12.348;2022-10-31T02:15:24;13.10;99.90
18191;DHT22;47004;51.366;12.348;2022-10-31T02:17:26;13.10;99.90
18191;DHT22;47004;51.366;12.348;2022-10-31T02:19:35;13.10;99.90
18191;DHT22;47004;51.366;12.348;2022-10-31T02:21:46;13.10;99.90
18191;DHT22;47004;51.366;12.348;2022-10-31T02:24:11;13.10;99.90
18191;DHT22;47004;51.366;12.348;2022-10-31T02:31:52;13.00;99.90
18191;DHT22;47004;51.366;12.348;2022-10-31T02:34:01;13.00;99.90
18191;DHT22;47004;51.366;12.348;2022-10-31T02:36:09;12.90;99.90
18191;DHT22;47004;51.366;12.348;2022-10-31T02:38:26;12.90;99.90
18191;DHT22;47004;51.366;12.348;2022-10-31T02:40:34;12.90;99.90
18191;DHT22;47004;51.366;12.348;2022-10-31T02:42:44;12.80;99.90
18191;DHT22;47004;51.366;12.348;2022-10-31T02:44:51;12.80;99.90
18191;DHT22;47004;51.366;12.348;2022-10-31T02:46:59;12.80;99.90
18191;DHT22;47004;51.366;12.348;2022-10-31T02:49:06;12.80;99.90
18191;DHT22;47004;51.366;12.348;2022-10-31T02:51:10;12.80;99.90
18191;DHT22;47004;51.366;12.348;2022-10-31T02:53:14;12.80;99.90
18191;DHT22;47004;51.366;12.348;2022-10-31T02:55:47;12.80;99.90
18191;DHT22;47004;51.366;12.348;2022-10-31T02:57:52;12.70;99.90
18191;DHT22;47004;51.366;12.348;2022-10-31T02:59:58;12.70;99.90
18191;DHT22;47004;51.366;12.348;2022-10-31T03:05:06;12.70;99.90
18191;DHT22;47004;51.366;12.348;2022-10-31T03:07:20;12.70;99.90
18191;DHT22;47004;51.366;12.348;2022-10-31T03:09:25;12.60;99.90
18191;DHT22;47004;51.366;12.348;2022-10-31T03:11:32;12.60;99.90
18191;DHT22;47004;51.366;12.348;2022-10-31T03:13:41;12.60;99.90
18191;DHT22;47004;51.366;12.348;2022-10-31T03:15:47;12.60;99.90
18191;DHT22;47004;51.366;12.348;2022-10-31T03:17:55;12.60;99.90
18191;DHT22;47004;51.366;12.348;2022-10-31T03:20:01;12.60;99.90
18191;DHT22;47004;51.366;12.348;2022-10-31T03:22:10;12.60;99.90
18191;DHT22;47004;51.366;12.348;2022-10-31T03:24:14;12.50;99.90
18191;DHT22;47004;51.366;12.348;2022-10-31T03:26:17;12.50;99.90
18191;DHT22;47004;51.366;12.348;2022-10-31T03:28:25;12.50;99.90
18191;DHT22;47004;51.366;12.348;2022-10-31T03:30:30;12.50;99.90
18191;DHT22;47004;51.366;12.348;2022-10-31T03:32:37;12.60;99.90
18191;DHT22;47004;51.366;12.348;2022-10-31T03:34:41;12.40;99.90
18191;DHT22;47004;51.366;12.348;2022-10-31T03:36:47;12.40;99.90
18191;DHT22;47004;51.366;12.348;2022-10-31T03:38:51;12.40;99.90
18191;DHT22;47004;51.366;12.348;2022-10-31T03:40:57;12.40;99.90
18191;DHT22;47004;51.366;12.348;2022-10-31T03:43:03;12.40;99.90
18191;DHT22;47004;51.366;12.348;2022-10-31T03:45:12;12.40;99.90
18191;DHT22;47004;51.366;12.348;2022-10-31T03:47:14;12.30;99.90
18191;DHT22;47004;51.366;12.348;2022-10-31T03:49:17;12.30;99.90
18191;DHT22;47004;51.366;12.348;2022-10-31T03:51:23;12.30;99.90
18191;DHT22;47004;51.366;12.348;2022-10-31T03:53:32;12.30;99.90
18191;DHT22;47004;51.366;12.348;2022-10-31T03:55:40;12.30;99.90
18191;DHT22;47004;51.366;12.348;2022-10-31T03:57:46;12.30;99.90
18191;DHT22;47004;51.366;12.348;2022-10-31T03:59:56;12.20;99.90
18191;DHT22;47004;51.366;12.348;2022-10-31T04:02:05;12.20;99.90
18191;DHT22;47004;51.366;12.348;2022-10-31T04:04:09;12.20;99.90
18191;DHT22;47004;51.366;12.348;2022-10-31T04:06:14;12.20;99.90
18191;DHT22;47004;51.366;12.348;2022-10-31T04:08:20;12.20;99.90
18191;DHT22;47004;51.366;12.348;2022-10-31T04:10:26;12.20;99.90
18191;DHT22;47004;51.366;12.348;2022-10-31T04:12:30;12.10;99.90
18191;DHT22;47004;51.366;12.348;2022-10-31T04:14:34;12.10;99.90
18191;DHT22;47004;51.366;12.348;2022-10-31T04:16:40;12.10;99.90
18191;DHT22;47004;51.366;12.348;2022-10-31T04:18:43;12.10;99.90
18191;DHT22;47004;51.366;12.348;2022-10-31T04:20:47;12.10;99.90
18191;DHT22;47004;51.366;12.348;2022-10-31T04:22:50;12.10;99.90
18191;DHT22;47004;51.366;12.348;2022-10-31T04:24:52;12.10;99.90
18191;DHT22;47004;51.366;12.348;2022-10-31T04:26:55;12.00;99.90
18191;DHT22;47004;51.366;12.348;2022-10-31T04:28:59;12.00;99.90
18191;DHT22;47004;51.366;12.348;2022-10-31T04:31:01;12.00;99.90
18191;DHT22;47004;51.366;12.348;2022-10-31T04:33:03;12.00;99.90
18191;DHT22;47004;51.366;12.348;2022-10-31T04:35:05;12.00;99.90
18191;DHT22;47004;51.366;12.348;2022-10-31T04:37:07;11.90;99.90
18191;DHT22;47004;51.366;12.348;2022-10-31T04:39:09;11.90;99.90
18191;DHT22;47004;51.366;12.348;2022-10-31T04:41:12;11.90;99.90
18191;DHT22;47004;51.366;12.348;2022-10-31T04:43:16;12.40;99.90
18191;DHT22;47004;51.366;12.348;2022-10-31T04:45:18;11.90;99.90
18191;DHT22;47004;51.366;12.348;2022-10-31T04:47:19;11.90;99.90
18191;DHT22;47004;51.366;12.348;2022-10-31T04:49:21;11.80;99.90
18191;DHT22;47004;51.366;12.348;2022-10-31T04:51:23;11.90;99.90
18191;DHT22;47004;51.366;12.348;2022-10-31T04:55:59;11.70;99.90
18191;DHT22;47004;51.366;12.348;2022-10-31T04:58:01;11.70;99.90
18191;DHT22;47004;51.366;12.348;2022-10-31T05:00:20;11.80;99.90
18191;DHT22;47004;51.366;12.348;2022-10-31T05:08:59;11.70;99.90
18191;DHT22;47004;51.366;12.348;2022-10-31T05:14:10;11.60;99.90
18191;DHT22;47004;51.366;12.348;2022-10-31T05:16:19;11.70;99.90
18191;DHT22;47004;51.366;12.348;2022-10-31T05:18:33;12.10;99.90
18191;DHT22;47004;51.366;12.348;2022-10-31T05:20:47;11.90;99.90
18191;DHT22;47004;51.366;12.348;2022-10-31T05:22:58;11.60;99.90
18191;DHT22;47004;51.366;12.348;2022-10-31T05:25:02;11.60;99.90
18191;DHT22;47004;51.366;12.348;2022-10-31T05:27:04;11.60;99.90
18191;DHT22;47004;51.366;12.348;2022-10-31T05:29:06;11.90;99.90
18191;DHT22;47004;51.366;12.348;2022-10-31T05:31:08;11.50;99.90
18191;DHT22;47004;51.366;12.348;2022-10-31T05:33:11;11.50;99.90
18191;DHT22;47004;51.366;12.348;2022-10-31T05:35:14;11.50;99.90
18191;DHT22;47004;51.366;12.348;2022-10-31T05:37:16;11.50;99.90
18191;DHT22;47004;51.366;12.348;2022-10-31T05:39:18;11.50;99.90
18191;DHT22;47004;51.366;12.348;2022-10-31T05:41:20;11.50;99.90
18191;DHT22;47004;51.366;12.348;2022-10-31T05:43:22;11.40;99.90
18191;DHT22;47004;51.366;12.348;2022-10-31T05:45:24;11.50;99.90
18191;DHT22;47004;51.366;12.348;2022-10-31T05:47:27;11.50;99.90
18191;DHT22;47004;51.366;12.348;2022-10-31T05:49:31;11.40;99.90
18191;DHT22;47004;51.366;12.348;2022-10-31T05:51:32;11.40;99.90
18191;DHT22;47004;51.366;12.348;2022-10-31T05:53:35;11.40;99.90
18191;DHT22;47004;51.366;12.348;2022-10-31T05:55:39;11.40;99.90
18191;DHT22;47004;51.366;12.348;2022-10-31T05:57:42;11.40;99.90
18191;DHT22;47004;51.366;12.348;2022-10-31T05:59:44;11.40;99.90
18191;DHT22;47004;51.366;12.348;2022-10-31T06:01:45;11.40;99.90
18191;DHT22;47004;51.366;12.348;2022-10-31T06:03:47;11.40;99.90
18191;DHT22;47004;51.366;12.348;2022-10-31T06:05:51;11.40;99.90
18191;DHT22;47004;51.366;12.348;2022-10-31T06:07:52;11.40;99.90
18191;DHT22;47004;51.366;12.348;2022-10-31T06:09:54;11.40;99.90
18191;DHT22;47004;51.366;12.348;2022-10-31T06:11:56;11.30;99.90
18191;DHT22;47004;51.366;12.348;2022-10-31T06:13:58;11.30;99.90
18191;DHT22;47004;51.366;12.348;2022-10-31T06:16:00;11.30;99.90
18191;DHT22;47004;51.366;12.348;2022-10-31T06:18:06;11.30;99.90
18191;DHT22;47004;51.366;12.348;2022-10-31T06:20:09;11.40;99.90
18191;DHT22;47004;51.366;12.348;2022-10-31T06:22:12;11.30;99.90
18191;DHT22;47004;51.366;12.348;2022-10-31T06:24:14;11.30;99.90
18191;DHT22;47004;51.366;12.348;2022-10-31T06:26:16;11.30;99.90
18191;DHT22;47004;51.366;12.348;2022-10-31T06:28:18;11.30;99.90
18191;DHT22;47004;51.366;12.348;2022-10-31T06:30:20;11.30;99.90
18191;DHT22;47004;51.366;12.348;2022-10-31T06:32:22;11.30;99.90
18191;DHT22;47004;51.366;12.348;2022-10-31T06:34:26;11.30;99.90
18191;DHT22;47004;51.366;12.348;2022-10-31T06:36:28;11.20;99.90
18191;DHT22;47004;51.366;12.348;2022-10-31T06:38:31;11.30;99.90
18191;DHT22;47004;51.366;12.348;2022-10-31T06:40:33;11.30;99.90
18191;DHT22;47004;51.366;12.348;2022-10-31T06:42:35;11.30;99.90
18191;DHT22;47004;51.366;12.348;2022-10-31T06:44:37;11.30;99.90
18191;DHT22;47004;51.366;12.348;2022-10-31T06:46:39;11.30;99.90
18191;DHT22;47004;51.366;12.348;2022-10-31T06:48:41;11.30;99.90
18191;DHT22;47004;51.366;12.348;2022-10-31T06:50:44;11.40;99.90
18191;DHT22;47004;51.366;12.348;2022-10-31T06:52:50;11.30;99.90
18191;DHT22;47004;51.366;12.348;2022-10-31T06:54:53;11.30;99.90
18191;DHT22;47004;51.366;12.348;2022-10-31T06:56:55;11.30;99.90
18191;DHT22;47004;51.366;12.348;2022-10-31T06:58:57;11.30;99.90
18191;DHT22;47004;51.366;12.348;2022-10-31T07:00:59;11.30;99.90
18191;DHT22;47004;51.366;12.348;2022-10-31T07:03:05;11.30;99.90
18191;DHT22;47004;51.366;12.348;2022-10-31T07:05:07;11.30;99.90
18191;DHT22;47004;51.366;12.348;2022-10-31T07:07:09;11.30;99.90
18191;DHT22;47004;51.366;12.348;2022-10-31T07:09:11;11.30;99.90
18191;DHT22;47004;51.366;12.348;2022-10-31T07:11:15;11.40;99.90
18191;DHT22;47004;51.366;12.348;2022-10-31T07:13:16;11.40;99.90
18191;DHT22;47004;51.366;12.348;2022-10-31T07:15:18;11.40;99.90
18191;DHT22;47004;51.366;12.348;2022-10-31T07:17:23;11.40;99.90
18191;DHT22;47004;51.366;12.348;2022-10-31T07:19:25;11.40;99.90
18191;DHT22;47004;51.366;12.348;2022-10-31T07:21:30;11.40;99.90
18191;DHT22;47004;51.366;12.348;2022-10-31T07:23:32;11.40;99.90
18191;DHT22;47004;51.366;12.348;2022-10-31T07:25:34;11.50;99.90
18191;DHT22;47004;51.366;12.348;2022-10-31T07:27:37;11.50;99.90
18191;DHT22;47004;51.366;12.348;2022-10-31T07:29:39;11.50;99.90
18191;DHT22;47004;51.366;12.348;2022-10-31T07:31:41;11.50;99.90
18191;DHT22;47004;51.366;12.348;2022-10-31T07:33:44;11.50;99.90
18191;DHT22;47004;51.366;12.348;2022-10-31T07:35:46;11.50;99.90
18191;DHT22;47004;51.366;12.348;2022-10-31T07:37:51;11.50;99.90
18191;DHT22;47004;51.366;12.348;2022-10-31T07:39:53;11.60;99.90
18191;DHT22;47004;51.366;12.348;2022-10-31T07:41:58;11.80;99.90
18191;DHT22;47004;51.366;12.348;2022-10-31T07:44:01;11.60;99.90
18191;DHT22;47004;51.366;12.348;2022-10-31T07:46:03;11.60;99.90
18191;DHT22;47004;51.366;12.348;2022-10-31T07:48:05;11.60;99.90
18191;DHT22;47004;51.366;12.348;2022-10-31T07:50:08;11.60;99.90
18191;DHT22;47004;51.366;12.348;2022-10-31T07:52:10;11.60;99.90
18191;DHT22;47004;51.366;12.348;2022-10-31T07:54:12;12.30;99.90
18191;DHT22;47004;51.366;12.348;2022-10-31T07:56:14;11.60;99.90
18191;DHT22;47004;51.366;12.348;2022-10-31T07:58:16;11.60;99.90
18191;DHT22;47004;51.366;12.348;2022-10-31T08:00:20;11.60;99.90
18191;DHT22;47004;51.366;12.348;2022-10-31T08:02:22;11.60;99.90
18191;DHT22;47004;51.366;12.348;2022-10-31T08:04:25;11.70;99.90
18191;DHT22;47004;51.366;12.348;2022-10-31T08:06:27;11.70;99.90
18191;DHT22;47004;51.366;12.348;2022-10-31T08:08:29;11.70;99.90
18191;DHT22;47004;51.366;12.348;2022-10-31T08:10:31;11.80;99.90
18191;DHT22;47004;51.366;12.348;2022-10-31T08:12:33;11.80;99.90
18191;DHT22;47004;51.366;12.348;2022-10-31T08:14:35;11.80;99.90
18191;DHT22;47004;51.366;12.348;2022-10-31T08:16:38;11.90;99.90
18191;DHT22;47004;51.366;12.348;2022-10-31T08:18:40;11.90;99.90
18191;DHT22;47004;51.366;12.348;2022-10-31T08:20:43;11.90;99.90
18191;DHT22;47004;51.366;12.348;2022-10-31T08:22:53;11.60;99.90
18191;DHT22;47004;51.366;12.348;2022-10-31T08:24:55;12.00;99.90
18191;DHT22;47004;51.366;12.348;2022-10-31T08:26:57;12.00;99.90
18191;DHT22;47004;51.366;12.348;2022-10-31T08:28:59;12.00;99.90
18191;DHT22;47004;51.366;12.348;2022-10-31T08:31:01;12.10;99.90
18191;DHT22;47004;51.366;12.348;2022-10-31T08:33:06;12.20;99.90
18191;DHT22;47004;51.366;12.348;2022-10-31T08:35:08;12.20;99.90
18191;DHT22;47004;51.366;12.348;2022-10-31T08:37:10;12.20;99.90
18191;DHT22;47004;51.366;12.348;2022-10-31T08:39:12;12.30;99.90
18191;DHT22;47004;51.366;12.348;2022-10-31T08:41:14;12.30;99.90
18191;DHT22;47004;51.366;12.348;2022-10-31T08:43:17;12.30;99.90
18191;DHT22;47004;51.366;12.348;2022-10-31T08:45:19;12.40;99.90
18191;DHT22;47004;51.366;12.348;2022-10-31T08:47:21;12.40;99.90
18191;DHT22;47004;51.366;12.348;2022-10-31T08:49:24;12.50;99.90
18191;DHT22;47004;51.366;12.348;2022-10-31T08:51:26;12.60;99.90
18191;DHT22;47004;51.366;12.348;2022-10-31T08:53:28;12.60;99.90
18191;DHT22;47004;51.366;12.348;2022-10-31T08:55:30;12.60;99.90
18191;DHT22;47004;51.366;12.348;2022-10-31T08:57:34;12.70;99.90
18191;DHT22;47004;51.366;12.348;2022-10-31T08:59:36;12.70;99.90
18191;DHT22;47004;51.366;12.348;2022-10-31T09:01:38;12.70;99.90
18191;DHT22;47004;51.366;12.348;2022-10-31T09:03:40;12.90;99.90
18191;DHT22;47004;51.366;12.348;2022-10-31T09:05:43;12.90;99.90
18191;DHT22;47004;51.366;12.348;2022-10-31T09:07:46;13.00;99.90
18191;DHT22;47004;51.366;12.348;2022-10-31T09:09:47;13.00;99.90
18191;DHT22;47004;51.366;12.348;2022-10-31T09:11:49;13.10;99.90
18191;DHT22;47004;51.366;12.348;2022-10-31T09:13:52;13.20;99.90
18191;DHT22;47004;51.366;12.348;2022-10-31T09:15:55;13.20;99.90
18191;DHT22;47004;51.366;12.348;2022-10-31T09:17:58;13.30;99.90
18191;DHT22;47004;51.366;12.348;2022-10-31T09:20:01;13.40;99.90
18191;DHT22;47004;51.366;12.348;2022-10-31T09:22:04;13.50;99.90
18191;DHT22;47004;51.366;12.348;2022-10-31T09:24:06;13.50;99.90
18191;DHT22;47004;51.366;12.348;2022-10-31T09:26:08;13.60;99.90
18191;DHT22;47004;51.366;12.348;2022-10-31T09:28:12;13.70;99.90
18191;DHT22;47004;51.366;12.348;2022-10-31T09:30:14;13.70;99.90
18191;DHT22;47004;51.366;12.348;2022-10-31T09:32:16;13.80;99.90
18191;DHT22;47004;51.366;12.348;2022-10-31T09:34:17;13.90;99.90
18191;DHT22;47004;51.366;12.348;2022-10-31T09:36:19;13.90;99.90
18191;DHT22;47004;51.366;12.348;2022-10-31T09:38:22;14.00;99.90
18191;DHT22;47004;51.366;12.348;2022-10-31T09:40:31;14.10;99.90
18191;DHT22;47004;51.366;12.348;2022-10-31T09:42:54;14.20;99.90
18191;DHT22;47004;51.366;12.348;2022-10-31T09:45:04;14.20;99.90
18191;DHT22;47004;51.366;12.348;2022-10-31T09:47:12;14.30;99.90
18191;DHT22;47004;51.366;12.348;2022-10-31T09:49:33;14.30;99.90
18191;DHT22;47004;51.366;12.348;2022-10-31T09:51:40;14.40;99.90
18191;DHT22;47004;51.366;12.348;2022-10-31T09:53:50;14.50;99.90
18191;DHT22;47004;51.366;12.348;2022-10-31T09:55:53;14.60;99.90
18191;DHT22;47004;51.366;12.348;2022-10-31T09:57:55;14.70;99.90
18191;DHT22;47004;51.366;12.348;2022-10-31T09:59:58;14.80;99.90
18191;DHT22;47004;51.366;12.348;2022-10-31T10:02:02;14.80;99.90
18191;DHT22;47004;51.366;12.348;2022-10-31T10:04:15;14.90;99.90
18191;DHT22;47004;51.366;12.348;2022-10-31T10:06:21;15.00;99.90
18191;DHT22;47004;51.366;12.348;2022-10-31T10:08:28;15.10;99.90
18191;DHT22;47004;51.366;12.348;2022-10-31T10:10:41;15.20;99.90
18191;DHT22;47004;51.366;12.348;2022-10-31T10:13:04;15.30;99.90
18191;DHT22;47004;51.366;12.348;2022-10-31T10:17:39;15.50;99.90
18191;DHT22;47004;51.366;12.348;2022-10-31T10:20:16;15.60;99.90
18191;DHT22;47004;51.366;12.348;2022-10-31T10:22:27;15.70;99.90
18191;DHT22;47004;51.366;12.348;2022-10-31T10:24:48;15.80;99.90
18191;DHT22;47004;51.366;12.348;2022-10-31T10:26:58;15.90;99.90
18191;DHT22;47004;51.366;12.348;2022-10-31T10:29:17;16.00;99.90
18191;DHT22;47004;51.366;12.348;2022-10-31T10:31:26;16.10;99.90
18191;DHT22;47004;51.366;12.348;2022-10-31T10:33:32;16.20;99.90
18191;DHT22;47004;51.366;12.348;2022-10-31T10:35:39;16.30;99.90
18191;DHT22;47004;51.366;12.348;2022-10-31T10:37:45;16.40;99.90
18191;DHT22;47004;51.366;12.348;2022-10-31T10:39:51;16.50;99.90
18191;DHT22;47004;51.366;12.348;2022-10-31T10:42:00;16.60;99.90
18191;DHT22;47004;51.366;12.348;2022-10-31T10:44:20;16.70;99.90
18191;DHT22;47004;51.366;12.348;2022-10-31T10:46:26;16.80;99.90
18191;DHT22;47004;51.366;12.348;2022-10-31T10:48:53;16.90;99.90
18191;DHT22;47004;51.366;12.348;2022-10-31T10:50:57;17.00;99.90
18191;DHT22;47004;51.366;12.348;2022-10-31T10:53:04;17.10;99.90
18191;DHT22;47004;51.366;12.348;2022-10-31T10:55:12;17.20;99.90
18191;DHT22;47004;51.366;12.348;2022-10-31T10:57:27;17.20;99.90
18191;DHT22;47004;51.366;12.348;2022-10-31T10:59:31;17.30;99.90
18191;DHT22;47004;51.366;12.348;2022-10-31T11:01:33;17.30;99.90
18191;DHT22;47004;51.366;12.348;2022-10-31T11:03:35;17.50;99.90
18191;DHT22;47004;51.366;12.348;2022-10-31T11:05:40;17.60;99.90
18191;DHT22;47004;51.366;12.348;2022-10-31T11:07:45;17.70;99.90
18191;DHT22;47004;51.366;12.348;2022-10-31T11:09:47;17.80;99.90
18191;DHT22;47004;51.366;12.348;2022-10-31T11:11:49;17.90;99.90
18191;DHT22;47004;51.366;12.348;2022-10-31T11:13:57;18.00;99.90
18191;DHT22;47004;51.366;12.348;2022-10-31T11:16:02;18.10;99.90
18191;DHT22;47004;51.366;12.348;2022-10-31T11:18:05;18.20;99.90
18191;DHT22;47004;51.366;12.348;2022-10-31T11:20:28;18.40;99.90
18191;DHT22;47004;51.366;12.348;2022-10-31T11:22:32;18.50;99.90
18191;DHT22;47004;51.366;12.348;2022-10-31T11:24:39;18.70;99.90
18191;DHT22;47004;51.366;12.348;2022-10-31T11:26:43;18.80;99.90
18191;DHT22;47004;51.366;12.348;2022-10-31T11:28:57;18.90;99.90
18191;DHT22;47004;51.366;12.348;2022-10-31T11:31:04;19.10;99.90
18191;DHT22;47004;51.366;12.348;2022-10-31T11:33:17;19.20;99.90
18191;DHT22;47004;51.366;12.348;2022-10-31T11:35:21;19.40;99.90
18191;DHT22;47004;51.366;12.348;2022-10-31T11:37:26;19.50;99.90
18191;DHT22;47004;51.366;12.348;2022-10-31T11:39:28;19.70;99.90
18191;DHT22;47004;51.366;12.348;2022-10-31T11:41:32;19.80;99.90
18191;DHT22;47004;51.366;12.348;2022-10-31T11:43:35;20.00;99.90
18191;DHT22;47004;51.366;12.348;2022-10-31T11:45:38;20.20;99.90
18191;DHT22;47004;51.366;12.348;2022-10-31T11:47:42;20.30;99.90
18191;DHT22;47004;51.366;12.348;2022-10-31T11:49:46;20.50;99.90
18191;DHT22;47004;51.366;12.348;2022-10-31T11:51:52;20.60;99.90
18191;DHT22;47004;51.366;12.348;2022-10-31T11:53:57;20.80;99.90
18191;DHT22;47004;51.366;12.348;2022-10-31T11:56:05;20.90;99.90
18191;DHT22;47004;51.366;12.348;2022-10-31T11:58:20;21.10;99.90
18191;DHT22;47004;51.366;12.348;2022-10-31T12:00:25;21.30;99.90
18191;DHT22;47004;51.366;12.348;2022-10-31T12:02:28;21.50;99.90
18191;DHT22;47004;51.366;12.348;2022-10-31T12:04:38;21.70;99.90
18191;DHT22;47004;51.366;12.348;2022-10-31T12:06:43;21.90;99.90
18191;DHT22;47004;51.366;12.348;2022-10-31T12:08:46;22.00;99.90
18191;DHT22;47004;51.366;12.348;2022-10-31T12:11:06;22.10;99.90
18191;DHT22;47004;51.366;12.348;2022-10-31T12:13:24;22.20;99.90
18191;DHT22;47004;51.366;12.348;2022-10-31T12:15:32;22.40;99.90
18191;DHT22;47004;51.366;12.348;2022-10-31T12:17:41;22.50;99.90
18191;DHT22;47004;51.366;12.348;2022-10-31T12:19:56;22.60;99.90
18191;DHT22;47004;51.366;12.348;2022-10-31T12:22:05;22.70;99.90
18191;DHT22;47004;51.366;12.348;2022-10-31T12:24:22;22.80;99.90
18191;DHT22;47004;51.366;12.348;2022-10-31T12:26:34;22.90;99.90
18191;DHT22;47004;51.366;12.348;2022-10-31T12:28:47;23.10;99.90
18191;DHT22;47004;51.366;12.348;2022-10-31T12:31:01;23.20;99.90
18191;DHT22;47004;51.366;12.348;2022-10-31T12:33:29;23.30;99.90
18191;DHT22;47004;51.366;12.348;2022-10-31T12:35:48;23.40;99.90
18191;DHT22;47004;51.366;12.348;2022-10-31T12:38:07;23.50;99.90
18191;DHT22;47004;51.366;12.348;2022-10-31T12:40:25;23.50;99.90
18191;DHT22;47004;51.366;12.348;2022-10-31T12:42:40;23.60;99.90
18191;DHT22;47004;51.366;12.348;2022-10-31T12:45:14;23.70;99.90
18191;DHT22;47004;51.366;12.348;2022-10-31T12:47:35;23.70;99.90
18191;DHT22;47004;51.366;12.348;2022-10-31T12:49:52;23.80;99.90
18191;DHT22;47004;51.366;12.348;2022-10-31T12:52:09;23.80;99.90
18191;DHT22;47004;51.366;12.348;2022-10-31T12:54:38;23.90;99.80
18191;DHT22;47004;51.366;12.348;2022-10-31T12:56:50;23.90;99.40
18191;DHT22;47004;51.366;12.348;2022-10-31T12:58:59;23.90;98.20
18191;DHT22;47004;51.366;12.348;2022-10-31T13:01:08;23.90;99.00
18191;DHT22;47004;51.366;12.348;2022-10-31T13:03:20;23.90;99.20
18191;DHT22;47004;51.366;12.348;2022-10-31T13:05:30;23.80;99.00
18191;DHT22;47004;51.366;12.348;2022-10-31T13:07:36;23.90;99.30
18191;DHT22;47004;51.366;12.348;2022-10-31T13:09:47;23.90;99.20
18191;DHT22;47004;51.366;12.348;2022-10-31T13:11:55;23.90;99.10
18191;DHT22;47004;51.366;12.348;2022-10-31T13:14:02;23.80;99.10
18191;DHT22;47004;51.366;12.348;2022-10-31T13:16:13;23.90;99.20
18191;DHT22;47004;51.366;12.348;2022-10-31T13:18:30;23.80;99.00
18191;DHT22;47004;51.366;12.348;2022-10-31T13:20:38;23.80;98.90
18191;DHT22;47004;51.366;12.348;2022-10-31T13:22:45;23.80;99.00
18191;DHT22;47004;51.366;12.348;2022-10-31T13:24:53;23.70;99.10